createdAt,value
2022-10-13T00:01:17.135Z,101132.80
2022-10-13T00:03:47.660Z,101130.84
2022-10-13T00:06:24.457Z,101132.66
2022-10-13T00:08:53.028Z,101133.55
2022-10-13T00:11:24.779Z,101133.13
2022-10-13T00:13:59.623Z,101134.62
2022-10-13T00:16:32.267Z,101127.87
2022-10-13T00:19:00.041Z,101124.87
2022-10-13T00:21:28.644Z,101121.27
2022-10-13T00:23:56.796Z,101120.89
2022-10-13T00:26:26.015Z,101121.45
2022-10-13T00:28:55.386Z,101121.52
2022-10-13T00:31:31.570Z,101123.10
2022-10-13T00:34:00.886Z,101123.98
2022-10-13T00:36:29.227Z,101122.95
2022-10-13T00:38:58.072Z,101122.71
2022-10-13T00:41:25.907Z,101125.49
2022-10-13T00:44:10.750Z,101119.92
2022-10-13T00:46:38.269Z,101124.59
2022-10-13T00:49:14.335Z,101126.63
2022-10-13T00:51:48.904Z,101126.61
2022-10-13T00:54:23.624Z,101125.07
2022-10-13T00:56:53.020Z,101121.88
2022-10-13T00:59:26.557Z,101118.83
2022-10-13T01:01:55.013Z,101117.88
2022-10-13T01:04:28.037Z,101111.89
2022-10-13T01:06:56.584Z,101112.55
2022-10-13T01:09:24.139Z,101111.16
2022-10-13T01:12:30.410Z,101106.65
2022-10-13T01:15:23.738Z,101104.99
2022-10-13T01:18:03.532Z,101102.19
2022-10-13T01:20:47.084Z,101100.38
2022-10-13T01:23:44.529Z,101100.33
2022-10-13T01:26:40.585Z,101097.20
2022-10-13T01:29:14.179Z,101093.77
2022-10-13T01:32:00.390Z,101091.95
2022-10-13T01:35:09.899Z,101095.65
2022-10-13T01:37:52.407Z,101094.56
2022-10-13T01:40:42.864Z,101090.55
2022-10-13T01:43:19.421Z,101087.95
2022-10-13T01:45:53.050Z,101088.38
2022-10-13T01:48:22.087Z,101086.41
2022-10-13T01:50:54.111Z,101081.83
2022-10-13T01:53:23.591Z,101079.31
2022-10-13T01:56:00.098Z,101078.72
2022-10-13T01:58:32.498Z,101077.81
2022-10-13T02:01:26.875Z,101075.12
2022-10-13T02:04:10.324Z,101076.45
2022-10-13T02:06:53.898Z,101072.38
2022-10-13T02:09:29.330Z,101072.95
2022-10-13T02:12:05.421Z,101072.18
2022-10-13T02:14:38.110Z,101070.65
2022-10-13T02:17:06.040Z,101070.91
2022-10-13T02:19:38.740Z,101068.77
2022-10-13T02:22:08.154Z,101066.91
2022-10-13T02:24:35.903Z,101070.36
2022-10-13T02:27:06.686Z,101072.39
2022-10-13T02:29:34.476Z,101068.63
2022-10-13T02:32:02.027Z,101065.94
2022-10-13T02:34:29.632Z,101068.91
2022-10-13T02:36:57.154Z,101063.38
2022-10-13T02:39:24.727Z,101064.35
2022-10-13T02:41:52.233Z,101064.77
2022-10-13T02:44:21.009Z,101061.60
2022-10-13T02:46:48.511Z,101060.34
2022-10-13T02:49:16.046Z,101058.65
2022-10-13T02:51:43.570Z,101057.19
2022-10-13T02:54:11.082Z,101055.73
2022-10-13T02:56:38.686Z,101054.22
2022-10-13T02:59:06.282Z,101055.48
2022-10-13T03:01:33.938Z,101057.00
2022-10-13T03:04:01.516Z,101053.64
2022-10-13T03:06:29.056Z,101046.98
2022-10-13T03:08:56.653Z,101046.39
2022-10-13T03:11:25.254Z,101049.16
2022-10-13T03:13:53.073Z,101048.77
2022-10-13T03:16:20.817Z,101050.21
2022-10-13T03:18:48.361Z,101049.04
2022-10-13T03:21:15.867Z,101047.98
2022-10-13T03:23:43.744Z,101050.40
2022-10-13T03:26:11.299Z,101051.33
2022-10-13T03:28:38.862Z,101043.94
2022-10-13T03:31:08.590Z,101044.99
2022-10-13T03:33:36.315Z,101044.48
2022-10-13T03:36:05.686Z,101048.91
2022-10-13T03:38:34.764Z,101047.73
2022-10-13T03:41:11.469Z,101043.17
2022-10-13T03:43:40.229Z,101042.40
2022-10-13T03:46:10.554Z,101040.92
2022-10-13T03:48:38.372Z,101039.05
2022-10-13T03:51:08.032Z,101038.98
2022-10-13T03:53:36.018Z,101039.59
2022-10-13T03:56:05.033Z,101037.46
2022-10-13T03:58:35.054Z,101037.08
2022-10-13T04:01:05.719Z,101037.30
2022-10-13T04:03:34.570Z,101035.79
2022-10-13T04:06:06.231Z,101034.50
2022-10-13T04:08:33.961Z,101035.89
2022-10-13T04:11:04.000Z,101037.30
2022-10-13T04:13:31.952Z,101031.86
2022-10-13T04:16:04.750Z,101038.06
2022-10-13T04:18:32.821Z,101040.72
2022-10-13T04:21:01.078Z,101039.20
2022-10-13T04:23:28.569Z,101036.50
2022-10-13T04:25:56.850Z,101040.71
2022-10-13T04:28:24.785Z,101036.91
2022-10-13T04:30:52.447Z,101039.46
2022-10-13T04:33:19.977Z,101035.27
2022-10-13T04:35:47.519Z,101038.23
2022-10-13T04:38:15.040Z,101037.05
2022-10-13T04:40:42.555Z,101035.71
2022-10-13T04:43:10.164Z,101035.13
2022-10-13T04:45:37.700Z,101038.16
2022-10-13T04:48:05.511Z,101038.38
2022-10-13T04:50:33.043Z,101038.19
2022-10-13T04:53:01.262Z,101037.24
2022-10-13T04:55:28.781Z,101041.92
2022-10-13T04:57:56.854Z,101040.86
2022-10-13T05:00:24.483Z,101043.81
2022-10-13T05:02:52.327Z,101041.77
2022-10-13T05:05:19.909Z,101040.57
2022-10-13T05:07:47.416Z,101041.30
2022-10-13T05:10:15.050Z,101043.73
2022-10-13T05:12:42.617Z,101039.52
2022-10-13T05:15:10.366Z,101038.81
2022-10-13T05:17:37.934Z,101033.95
2022-10-13T05:20:09.943Z,101031.13
2022-10-13T05:22:37.804Z,101028.91
2022-10-13T05:25:05.601Z,101029.98
2022-10-13T05:27:33.178Z,101028.60
2022-10-13T05:30:01.611Z,101023.34
2022-10-13T05:32:29.153Z,101022.46
2022-10-13T05:34:56.903Z,101021.61
2022-10-13T05:37:24.481Z,101019.52
2022-10-13T05:39:52.005Z,101018.33
2022-10-13T05:42:20.019Z,101020.02
2022-10-13T05:44:47.844Z,101013.91
2022-10-13T05:47:15.410Z,101016.23
2022-10-13T05:49:42.921Z,101013.46
2022-10-13T05:52:12.733Z,101008.10
2022-10-13T05:54:44.089Z,101006.92
2022-10-13T05:57:24.485Z,101006.66
2022-10-13T05:59:56.782Z,101007.56
2022-10-13T06:02:28.273Z,101009.56
2022-10-13T06:04:57.817Z,101010.16
2022-10-13T06:07:25.713Z,101015.34
2022-10-13T06:09:53.300Z,101012.55
2022-10-13T06:13:09.785Z,101014.66
2022-10-13T06:15:37.283Z,101012.70
2022-10-13T06:18:10.124Z,101017.65
2022-10-13T06:20:37.827Z,101019.77
2022-10-13T06:23:05.658Z,101021.20
2022-10-13T06:25:33.459Z,101024.26
2022-10-13T06:28:01.126Z,101021.58
2022-10-13T06:30:29.137Z,101013.80
2022-10-13T06:32:58.194Z,101014.80
2022-10-13T06:35:32.521Z,101011.66
2022-10-13T06:38:00.081Z,101012.15
2022-10-13T06:40:27.743Z,101007.25
2022-10-13T06:42:55.404Z,101003.98
2022-10-13T06:45:23.232Z,101004.64
2022-10-13T06:47:53.792Z,101002.45
2022-10-13T06:50:24.837Z,101004.23
2022-10-13T06:52:52.414Z,101000.44
2022-10-13T06:55:20.102Z,101001.50
2022-10-13T06:57:47.706Z,101000.71
2022-10-13T07:00:15.372Z,101000.50
2022-10-13T07:02:44.518Z,101001.53
2022-10-13T07:05:13.425Z,100999.58
2022-10-13T07:07:41.178Z,100996.21
2022-10-13T07:10:09.308Z,100998.77
2022-10-13T07:12:37.897Z,101004.68
2022-10-13T07:15:06.039Z,101000.23
2022-10-13T07:17:33.586Z,100997.27
2022-10-13T07:20:03.673Z,100992.65
2022-10-13T07:22:35.124Z,100986.89
2022-10-13T07:25:03.042Z,100982.89
2022-10-13T07:27:30.553Z,100982.73
2022-10-13T07:29:58.049Z,100980.00
2022-10-13T07:32:25.578Z,100980.44
2022-10-13T07:34:53.946Z,100976.34
2022-10-13T07:37:22.252Z,100974.13
2022-10-13T07:39:50.136Z,100969.27
2022-10-13T07:42:17.841Z,100965.67
2022-10-13T07:44:45.441Z,100969.18
2022-10-13T07:47:16.905Z,100961.16
2022-10-13T07:49:45.738Z,100965.75
2022-10-13T07:52:13.340Z,100959.70
2022-10-13T07:54:40.968Z,100958.65
2022-10-13T07:57:10.635Z,100951.46
2022-10-13T07:59:38.516Z,100946.03
2022-10-13T08:02:10.919Z,100944.68
2022-10-13T08:04:39.193Z,100945.31
2022-10-13T08:07:06.921Z,100944.56
2022-10-13T08:09:35.070Z,100940.31
2022-10-13T08:12:03.684Z,100940.16
2022-10-13T08:14:31.663Z,100937.48
2022-10-13T08:16:59.417Z,100942.78
2022-10-13T08:19:28.239Z,100941.48
2022-10-13T08:21:58.871Z,100945.05
2022-10-13T08:24:28.221Z,100941.49
2022-10-13T08:26:56.332Z,100938.02
2022-10-13T08:29:24.510Z,100936.27
2022-10-13T08:31:53.652Z,100935.66
2022-10-13T08:34:23.304Z,100938.99
2022-10-13T08:36:54.243Z,100935.27
2022-10-13T08:39:24.588Z,100932.08
2022-10-13T08:41:54.095Z,100930.45
2022-10-13T08:47:53.184Z,100922.22
2022-10-13T08:50:25.097Z,100923.38
2022-10-13T08:53:09.832Z,100922.27
2022-10-13T08:55:45.133Z,100922.25
2022-10-13T08:58:18.084Z,100923.01
2022-10-13T09:00:46.761Z,100920.23
2022-10-13T09:03:21.144Z,100914.38
2022-10-13T09:06:02.825Z,100912.33
2022-10-13T09:08:38.332Z,100901.71
2022-10-13T09:11:09.733Z,100899.25
2022-10-13T09:13:37.353Z,100893.77
2022-10-13T09:16:05.239Z,100895.06
2022-10-13T09:18:35.661Z,100895.41
2022-10-13T09:21:12.051Z,100896.86
2022-10-13T09:23:41.898Z,100889.90
2022-10-13T09:26:19.066Z,100891.30
2022-10-13T09:28:53.159Z,100887.59
2022-10-13T09:31:28.301Z,100891.29
2022-10-13T09:34:10.285Z,100894.04
2022-10-13T09:36:38.210Z,100890.46
2022-10-13T09:39:22.671Z,100888.79
2022-10-13T09:41:50.543Z,100888.98
2022-10-13T09:44:28.474Z,100890.95
2022-10-13T09:46:59.195Z,100893.48
2022-10-13T09:49:38.509Z,100887.04
2022-10-13T09:52:17.735Z,100888.08
2022-10-13T09:54:53.938Z,100885.01
2022-10-13T09:57:30.424Z,100877.05
2022-10-13T10:00:04.363Z,100875.42
2022-10-13T10:02:58.313Z,100875.92
2022-10-13T10:05:32.521Z,100879.48
2022-10-13T10:08:14.564Z,100879.31
2022-10-13T10:10:43.323Z,100869.15
2022-10-13T10:13:12.603Z,100863.60
2022-10-13T10:15:58.881Z,100863.06
2022-10-13T10:18:58.463Z,100862.64
2022-10-13T10:21:47.618Z,100865.33
2022-10-13T10:24:32.864Z,100863.54
2022-10-13T10:27:15.282Z,100853.73
2022-10-13T10:30:04.581Z,100844.68
2022-10-13T10:32:50.915Z,100838.94
2022-10-13T10:35:37.080Z,100844.21
2022-10-13T10:38:26.667Z,100838.48
2022-10-13T10:41:16.053Z,100838.91
2022-10-13T10:44:04.389Z,100826.39
2022-10-13T10:46:36.436Z,100828.52
2022-10-13T10:49:30.781Z,100832.19
2022-10-13T10:52:01.609Z,100829.02
2022-10-13T10:54:49.160Z,100821.39
2022-10-13T10:57:29.365Z,100819.42
2022-10-13T11:00:10.219Z,100816.36
2022-10-13T11:02:40.866Z,100819.79
2022-10-13T11:05:08.635Z,100825.17
2022-10-13T11:07:39.122Z,100820.78
2022-10-13T11:10:12.768Z,100813.77
2022-10-13T11:12:57.157Z,100818.06
2022-10-13T11:15:31.241Z,100822.27
2022-10-13T11:17:58.814Z,100815.14
2022-10-13T11:20:26.350Z,100810.98
2022-10-13T11:22:59.994Z,100806.13
2022-10-13T11:25:44.783Z,100803.23
2022-10-13T11:28:44.216Z,100800.38
2022-10-13T11:31:16.765Z,100804.07
2022-10-13T11:33:47.973Z,100801.85
2022-10-13T11:36:37.151Z,100797.52
2022-10-13T11:39:28.240Z,100793.69
2022-10-13T11:42:11.930Z,100793.80
2022-10-13T11:45:13.445Z,100788.80
2022-10-13T11:48:12.913Z,100786.48
2022-10-13T11:51:23.644Z,100781.09
2022-10-13T11:54:23.598Z,100779.20
2022-10-13T11:56:53.858Z,100772.55
2022-10-13T11:59:31.753Z,100769.53
2022-10-13T12:02:18.961Z,100767.14
2022-10-13T12:05:08.838Z,100761.78
2022-10-13T12:07:41.077Z,100760.23
2022-10-13T12:10:20.091Z,100761.36
2022-10-13T12:12:51.365Z,100755.39
2022-10-13T12:15:41.084Z,100755.40
2022-10-13T12:18:25.079Z,100746.37
2022-10-13T12:21:20.186Z,100748.62
2022-10-13T12:23:50.885Z,100748.80
2022-10-13T12:26:22.807Z,100743.84
2022-10-13T12:29:00.771Z,100737.71
2022-10-13T12:31:38.264Z,100732.05
2022-10-13T12:34:18.505Z,100730.84
2022-10-13T12:39:22.040Z,100721.75
2022-10-13T12:41:50.708Z,100720.83
2022-10-13T12:44:22.470Z,100717.04
2022-10-13T12:46:52.487Z,100707.29
2022-10-13T12:51:52.474Z,100700.36
2022-10-13T12:54:32.680Z,100699.16
2022-10-13T12:57:05.143Z,100693.85
2022-10-13T12:59:34.497Z,100694.89
2022-10-13T13:02:19.146Z,100692.52
2022-10-13T13:04:47.093Z,100687.10
2022-10-13T13:07:37.177Z,100684.27
2022-10-13T13:10:07.718Z,100678.19
2022-10-13T13:12:36.852Z,100683.56
2022-10-13T13:15:26.898Z,100671.95
2022-10-13T13:17:59.327Z,100674.70
2022-10-13T13:20:33.798Z,100661.52
2022-10-13T13:23:01.506Z,100656.79
2022-10-13T13:25:29.067Z,100645.73
2022-10-13T13:27:56.807Z,100640.34
2022-10-13T13:30:24.575Z,100640.85
2022-10-13T13:32:52.189Z,100648.77
2022-10-13T13:35:20.239Z,100647.58
2022-10-13T13:37:50.849Z,100640.87
2022-10-13T13:40:26.473Z,100640.45
2022-10-13T13:42:54.877Z,100639.40
2022-10-13T13:45:25.442Z,100635.96
2022-10-13T13:47:57.955Z,100639.04
2022-10-13T13:50:33.923Z,100627.70
2022-10-13T13:53:01.614Z,100620.89
2022-10-13T13:55:30.014Z,100620.27
2022-10-13T13:57:58.647Z,100625.16
2022-10-13T14:00:26.157Z,100622.21
2022-10-13T14:02:57.615Z,100608.10
2022-10-13T14:05:25.530Z,100608.84
2022-10-13T14:07:55.059Z,100606.33
2022-10-13T14:10:22.721Z,100594.81
2022-10-13T14:12:51.423Z,100583.85
2022-10-13T14:15:19.137Z,100594.63
2022-10-13T14:17:46.781Z,100605.33
2022-10-13T14:20:14.399Z,100594.74
2022-10-13T14:22:42.294Z,100594.70
2022-10-13T14:25:10.780Z,100599.86
2022-10-13T14:27:38.357Z,100591.36
2022-10-13T14:30:08.709Z,100594.11
2022-10-13T14:32:37.204Z,100592.58
2022-10-13T14:35:05.568Z,100587.04
2022-10-13T14:37:34.130Z,100584.75
2022-10-13T14:40:02.032Z,100580.64
2022-10-13T14:42:29.609Z,100582.31
2022-10-13T14:44:57.146Z,100585.95
2022-10-13T14:47:24.653Z,100585.21
2022-10-13T14:49:52.301Z,100586.23
2022-10-13T14:52:19.817Z,100585.96
2022-10-13T14:54:47.521Z,100583.63
2022-10-13T14:57:16.291Z,100585.09
2022-10-13T14:59:44.070Z,100582.11
2022-10-13T15:02:12.977Z,100578.52
2022-10-13T15:04:45.992Z,100583.19
2022-10-13T15:07:13.483Z,100584.16
2022-10-13T15:09:52.916Z,100582.16
2022-10-13T15:12:21.340Z,100580.52
2022-10-13T15:14:49.076Z,100577.26
2022-10-13T15:17:16.581Z,100572.80
2022-10-13T15:19:44.216Z,100573.10
2022-10-13T15:22:11.987Z,100570.16
2022-10-13T15:24:39.454Z,100569.91
2022-10-13T15:27:06.973Z,100567.45
2022-10-13T15:29:34.844Z,100570.34
2022-10-13T15:32:11.071Z,100568.92
2022-10-13T15:34:41.645Z,100577.02
2022-10-13T15:37:09.126Z,100576.22
2022-10-13T15:39:36.957Z,100572.12
2022-10-13T15:42:05.289Z,100574.72
2022-10-13T15:44:51.019Z,100574.20
2022-10-13T15:47:20.278Z,100570.30
2022-10-13T15:49:47.757Z,100571.67
2022-10-13T15:52:15.388Z,100565.11
2022-10-13T15:54:42.993Z,100565.23
2022-10-13T15:57:10.483Z,100566.31
2022-10-13T15:59:37.970Z,100561.18
2022-10-13T16:02:05.457Z,100560.79
2022-10-13T16:04:37.516Z,100565.30
2022-10-13T16:07:05.354Z,100566.34
2022-10-13T16:09:33.005Z,100572.23
2022-10-13T16:12:00.661Z,100572.95
2022-10-13T16:14:28.180Z,100570.91
2022-10-13T16:16:57.967Z,100569.27
2022-10-13T16:19:25.572Z,100564.91
2022-10-13T16:21:53.077Z,100565.23
2022-10-13T16:24:21.005Z,100568.27
2022-10-13T16:26:48.521Z,100567.85
2022-10-13T16:29:16.164Z,100567.08
2022-10-13T16:31:44.152Z,100568.66
2022-10-13T16:34:11.686Z,100571.26
2022-10-13T16:36:39.180Z,100574.71
2022-10-13T16:39:06.732Z,100578.30
2022-10-13T16:41:34.801Z,100575.25
2022-10-13T16:44:02.342Z,100580.17
2022-10-13T16:46:29.899Z,100583.36
2022-10-13T16:48:57.615Z,100581.75
2022-10-13T16:51:26.552Z,100586.73
2022-10-13T16:54:01.191Z,100587.98
2022-10-13T16:56:31.634Z,100588.97
2022-10-13T16:59:04.674Z,100588.60
2022-10-13T17:01:34.365Z,100591.83
2022-10-13T17:04:03.278Z,100587.88
2022-10-13T17:06:30.871Z,100593.22
2022-10-13T17:09:00.501Z,100594.17
2022-10-13T17:11:30.116Z,100598.17
2022-10-13T17:13:59.339Z,100594.27
2022-10-13T17:16:31.859Z,100589.63
2022-10-13T17:18:59.826Z,100592.54
2022-10-13T17:21:43.988Z,100589.52
2022-10-13T17:24:11.771Z,100588.10
2022-10-13T17:26:39.562Z,100590.36
2022-10-13T17:29:07.080Z,100590.45
2022-10-13T17:31:34.602Z,100589.23
2022-10-13T17:34:02.302Z,100587.83
2022-10-13T17:36:34.438Z,100595.23
2022-10-13T17:39:11.248Z,100593.95
2022-10-13T17:41:41.982Z,100598.77
2022-10-13T17:44:10.034Z,100599.29
2022-10-13T17:46:39.272Z,100603.98
2022-10-13T17:49:11.181Z,100600.36
2022-10-13T17:51:39.781Z,100596.66
2022-10-13T17:54:11.599Z,100597.85
2022-10-13T17:56:42.298Z,100598.34
2022-10-13T17:59:10.215Z,100599.13
2022-10-13T18:01:38.491Z,100604.14
2022-10-13T18:04:09.862Z,100604.14
2022-10-13T18:06:40.511Z,100604.94
2022-10-13T18:09:14.059Z,100603.16
2022-10-13T18:11:49.479Z,100606.04
2022-10-13T18:14:20.917Z,100608.34
2022-10-13T18:16:50.849Z,100610.23
2022-10-13T18:19:18.965Z,100609.31
2022-10-13T18:21:46.675Z,100608.32
2022-10-13T18:24:14.377Z,100608.13
2022-10-13T18:26:42.001Z,100603.52
2022-10-13T18:29:11.836Z,100603.02
2022-10-13T18:31:41.125Z,100602.98
2022-10-13T18:34:15.854Z,100600.64
2022-10-13T18:36:47.246Z,100600.43
2022-10-13T18:39:18.411Z,100597.14
2022-10-13T18:41:47.338Z,100594.55
2022-10-13T18:44:15.892Z,100589.22
2022-10-13T18:46:43.791Z,100589.09
2022-10-13T18:49:14.420Z,100590.27
2022-10-13T18:51:42.771Z,100590.10
2022-10-13T18:54:10.969Z,100585.95
2022-10-13T18:56:38.547Z,100593.14
2022-10-13T18:59:07.954Z,100591.37
2022-10-13T19:01:37.155Z,100592.55
2022-10-13T19:04:05.699Z,100596.88
2022-10-13T19:06:33.706Z,100592.48
2022-10-13T19:09:04.311Z,100594.48
2022-10-13T19:11:35.484Z,100593.34
2022-10-13T19:14:05.617Z,100593.13
2022-10-13T19:16:36.739Z,100593.26
2022-10-13T19:19:04.628Z,100591.58
2022-10-13T19:21:32.686Z,100590.23
2022-10-13T19:24:00.963Z,100586.73
2022-10-13T19:26:32.624Z,100584.45
2022-10-13T19:29:04.261Z,100592.16
2022-10-13T19:31:33.441Z,100596.80
2022-10-13T19:34:01.758Z,100594.67
2022-10-13T19:36:38.933Z,100594.17
2022-10-13T19:39:17.098Z,100593.60
2022-10-13T19:41:45.961Z,100585.22
2022-10-13T19:44:15.659Z,100580.25
2022-10-13T19:46:44.891Z,100587.10
2022-10-13T19:49:15.492Z,100588.20
2022-10-13T19:51:46.637Z,100598.11
2022-10-13T19:54:14.966Z,100594.79
2022-10-13T19:56:48.228Z,100590.33
2022-10-13T19:59:17.703Z,100592.63
2022-10-13T20:01:45.819Z,100592.58
2022-10-13T20:04:15.688Z,100588.44
2022-10-13T20:06:45.708Z,100588.64
2022-10-13T20:09:13.892Z,100588.08
2022-10-13T20:11:44.930Z,100583.17
2022-10-13T20:14:13.528Z,100582.20
2022-10-13T20:16:41.508Z,100581.79
2022-10-13T20:19:12.791Z,100579.92
2022-10-13T20:21:41.064Z,100579.31
2022-10-13T20:24:12.994Z,100579.55
2022-10-13T20:26:40.953Z,100580.41
2022-10-13T20:29:08.863Z,100578.48
2022-10-13T20:31:36.854Z,100580.30
2022-10-13T20:34:04.546Z,100575.98
2022-10-13T20:36:38.294Z,100578.29
2022-10-13T20:39:06.810Z,100573.15
2022-10-13T20:41:35.381Z,100575.09
2022-10-13T20:44:03.709Z,100573.59
2022-10-13T20:46:33.690Z,100573.64
2022-10-13T20:49:17.359Z,100572.90
2022-10-13T20:51:45.011Z,100565.70
2022-10-13T20:54:14.756Z,100562.77
2022-10-13T20:56:43.088Z,100552.99
2022-10-13T20:59:14.354Z,100549.23
2022-10-13T21:01:42.727Z,100545.08
2022-10-13T21:04:11.115Z,100539.66
2022-10-13T21:06:40.921Z,100533.12
2022-10-13T21:09:09.253Z,100529.14
2022-10-13T21:11:39.516Z,100530.45
2022-10-13T21:14:09.453Z,100522.11
2022-10-13T21:16:39.952Z,100518.56
2022-10-13T21:19:09.729Z,100513.27
2022-10-13T21:21:38.101Z,100510.19
2022-10-13T21:24:07.228Z,100503.14
2022-10-13T21:26:35.299Z,100495.89
2022-10-13T21:29:03.509Z,100495.44
2022-10-13T21:31:32.496Z,100491.48
2022-10-13T21:34:00.817Z,100489.11
2022-10-13T21:36:31.009Z,100486.77
2022-10-13T21:39:01.754Z,100488.28
2022-10-13T21:41:30.624Z,100490.00
2022-10-13T21:43:58.624Z,100487.90
2022-10-13T21:46:32.740Z,100486.30
2022-10-13T21:49:02.725Z,100484.86
2022-10-13T21:51:33.771Z,100485.23
2022-10-13T21:54:05.320Z,100487.05
2022-10-13T21:56:33.978Z,100482.25
2022-10-13T21:59:02.299Z,100476.52
2022-10-13T22:01:30.115Z,100474.92
2022-10-13T22:04:01.621Z,100468.68
2022-10-13T22:06:31.631Z,100466.33
2022-10-13T22:09:01.273Z,100469.11
2022-10-13T22:11:31.058Z,100469.55
2022-10-13T22:13:59.713Z,100467.90
2022-10-13T22:16:31.819Z,100466.17
2022-10-13T22:18:59.522Z,100466.98
2022-10-13T22:21:30.485Z,100467.31
2022-10-13T22:24:01.369Z,100464.92
2022-10-13T22:26:31.738Z,100464.86
2022-10-13T22:29:01.235Z,100457.88
2022-10-13T22:31:30.592Z,100456.33
2022-10-13T22:33:58.825Z,100456.02
2022-10-13T22:36:27.012Z,100458.73
2022-10-13T22:38:57.382Z,100459.05
2022-10-13T22:41:25.808Z,100462.41
2022-10-13T22:43:57.202Z,100458.22
2022-10-13T22:46:27.927Z,100457.56
2022-10-13T22:48:56.665Z,100456.95
2022-10-13T22:51:27.354Z,100451.09
2022-10-13T22:53:56.144Z,100454.48
2022-10-13T22:56:26.740Z,100452.92
2022-10-13T22:58:57.611Z,100450.77
2022-10-13T23:01:26.264Z,100446.30
2022-10-13T23:03:56.100Z,100444.29
2022-10-13T23:06:27.556Z,100442.02
2022-10-13T23:08:55.553Z,100441.86
2022-10-13T23:11:23.350Z,100440.77
2022-10-13T23:13:51.036Z,100441.01
2022-10-13T23:16:24.158Z,100444.04
2022-10-13T23:18:52.727Z,100435.45
2022-10-13T23:21:28.596Z,100440.83
2022-10-13T23:24:01.557Z,100435.29
2022-10-13T23:26:30.292Z,100436.06
2022-10-13T23:28:59.017Z,100432.05
2022-10-13T23:31:27.639Z,100432.41
2022-10-13T23:33:56.155Z,100434.52
2022-10-13T23:36:27.111Z,100433.52
2022-10-13T23:38:59.733Z,100434.58
2022-10-13T23:41:29.162Z,100431.30
2022-10-13T23:43:57.231Z,100424.38
2022-10-13T23:46:25.437Z,100427.81
2022-10-13T23:48:53.032Z,100428.13
2022-10-13T23:51:24.003Z,100425.13
2022-10-13T23:53:52.252Z,100420.94
2022-10-13T23:56:20.449Z,100415.68
2022-10-13T23:58:49.022Z,100412.18
